sensor_id;sensor_type;location;lat;lon;timestamp;P1;durP1;ratioP1;P2;durP2;ratioP2
8665;SDS011;4370;48.916;8.380;2022-07-06T00:01:00;3.27;;;2.60;;
8665;SDS011;4370;48.916;8.380;2022-07-06T00:03:26;5.57;;;2.53;;
8665;SDS011;4370;48.916;8.380;2022-07-06T00:05:51;2.43;;;2.23;;
8665;SDS011;4370;48.916;8.380;2022-07-06T00:08:17;6.37;;;2.70;;
8665;SDS011;4370;48.916;8.380;2022-07-06T00:10:43;2.77;;;2.40;;
8665;SDS011;4370;48.916;8.380;2022-07-06T00:13:09;4.57;;;2.50;;
8665;SDS011;4370;48.916;8.380;2022-07-06T00:15:35;4.40;;;2.57;;
8665;SDS011;4370;48.916;8.380;2022-07-06T00:18:01;4.00;;;2.73;;
8665;SDS011;4370;48.916;8.380;2022-07-06T00:20:26;3.00;;;2.20;;
8665;SDS011;4370;48.916;8.380;2022-07-06T00:22:52;2.50;;;2.30;;
8665;SDS011;4370;48.916;8.380;2022-07-06T00:25:18;3.90;;;2.60;;
8665;SDS011;4370;48.916;8.380;2022-07-06T00:27:44;6.53;;;2.47;;
8665;SDS011;4370;48.916;8.380;2022-07-06T00:30:10;2.90;;;2.53;;
8665;SDS011;4370;48.916;8.380;2022-07-06T00:32:35;3.57;;;2.30;;
8665;SDS011;4370;48.916;8.380;2022-07-06T00:35:01;2.87;;;2.67;;
8665;SDS011;4370;48.916;8.380;2022-07-06T00:37:27;5.43;;;2.63;;
8665;SDS011;4370;48.916;8.380;2022-07-06T00:39:53;2.50;;;2.30;;
8665;SDS011;4370;48.916;8.380;2022-07-06T00:42:18;2.67;;;2.47;;
8665;SDS011;4370;48.916;8.380;2022-07-06T00:44:44;2.50;;;2.10;;
8665;SDS011;4370;48.916;8.380;2022-07-06T00:47:10;4.83;;;2.57;;
8665;SDS011;4370;48.916;8.380;2022-07-06T00:49:36;4.27;;;2.60;;
8665;SDS011;4370;48.916;8.380;2022-07-06T00:52:21;3.67;;;2.40;;
8665;SDS011;4370;48.916;8.380;2022-07-06T00:54:47;3.73;;;2.30;;
8665;SDS011;4370;48.916;8.380;2022-07-06T00:57:13;3.10;;;2.77;;
8665;SDS011;4370;48.916;8.380;2022-07-06T00:59:39;2.20;;;2.00;;
8665;SDS011;4370;48.916;8.380;2022-07-06T01:02:04;2.37;;;2.17;;
8665;SDS011;4370;48.916;8.380;2022-07-06T01:04:30;2.77;;;2.10;;
8665;SDS011;4370;48.916;8.380;2022-07-06T01:06:56;2.20;;;2.10;;
8665;SDS011;4370;48.916;8.380;2022-07-06T01:09:22;5.03;;;2.40;;
8665;SDS011;4370;48.916;8.380;2022-07-06T01:11:48;3.60;;;2.70;;
8665;SDS011;4370;48.916;8.380;2022-07-06T01:14:14;2.50;;;2.30;;
8665;SDS011;4370;48.916;8.380;2022-07-06T01:16:40;2.70;;;2.50;;
8665;SDS011;4370;48.916;8.380;2022-07-06T01:19:06;7.80;;;2.67;;
8665;SDS011;4370;48.916;8.380;2022-07-06T01:21:31;2.70;;;2.43;;
8665;SDS011;4370;48.916;8.380;2022-07-06T01:23:57;2.57;;;2.33;;
8665;SDS011;4370;48.916;8.380;2022-07-06T01:26:22;2.33;;;2.13;;
8665;SDS011;4370;48.916;8.380;2022-07-06T01:28:49;2.63;;;2.40;;
8665;SDS011;4370;48.916;8.380;2022-07-06T01:31:17;3.80;;;2.53;;
8665;SDS011;4370;48.916;8.380;2022-07-06T01:33:48;3.27;;;2.67;;
8665;SDS011;4370;48.916;8.380;2022-07-06T01:36:15;3.13;;;2.80;;
8665;SDS011;4370;48.916;8.380;2022-07-06T01:38:44;3.47;;;2.90;;
8665;SDS011;4370;48.916;8.380;2022-07-06T01:41:10;4.37;;;2.80;;
8665;SDS011;4370;48.916;8.380;2022-07-06T01:43:37;3.77;;;3.43;;
8665;SDS011;4370;48.916;8.380;2022-07-06T01:46:03;8.50;;;3.60;;
8665;SDS011;4370;48.916;8.380;2022-07-06T01:48:29;5.77;;;2.80;;
8665;SDS011;4370;48.916;8.380;2022-07-06T01:50:55;5.97;;;3.40;;
8665;SDS011;4370;48.916;8.380;2022-07-06T01:53:21;3.60;;;3.20;;
8665;SDS011;4370;48.916;8.380;2022-07-06T01:55:47;3.97;;;3.23;;
8665;SDS011;4370;48.916;8.380;2022-07-06T01:58:12;3.40;;;3.10;;
8665;SDS011;4370;48.916;8.380;2022-07-06T02:00:38;6.00;;;3.37;;
8665;SDS011;4370;48.916;8.380;2022-07-06T02:03:04;3.77;;;3.40;;
8665;SDS011;4370;48.916;8.380;2022-07-06T02:05:29;3.50;;;3.13;;
8665;SDS011;4370;48.916;8.380;2022-07-06T02:07:55;4.23;;;3.50;;
8665;SDS011;4370;48.916;8.380;2022-07-06T02:10:21;4.93;;;3.50;;
8665;SDS011;4370;48.916;8.380;2022-07-06T02:12:48;3.60;;;2.93;;
8665;SDS011;4370;48.916;8.380;2022-07-06T02:15:14;5.07;;;3.43;;
8665;SDS011;4370;48.916;8.380;2022-07-06T02:17:41;5.57;;;3.67;;
8665;SDS011;4370;48.916;8.380;2022-07-06T02:20:07;5.50;;;3.43;;
8665;SDS011;4370;48.916;8.380;2022-07-06T02:22:33;6.17;;;3.77;;
8665;SDS011;4370;48.916;8.380;2022-07-06T02:24:59;3.27;;;3.00;;
8665;SDS011;4370;48.916;8.380;2022-07-06T02:27:24;4.70;;;3.40;;
8665;SDS011;4370;48.916;8.380;2022-07-06T02:29:50;3.27;;;2.97;;
8665;SDS011;4370;48.916;8.380;2022-07-06T02:32:16;4.03;;;3.43;;
8665;SDS011;4370;48.916;8.380;2022-07-06T02:34:42;4.73;;;3.20;;
8665;SDS011;4370;48.916;8.380;2022-07-06T02:37:08;4.00;;;3.00;;
8665;SDS011;4370;48.916;8.380;2022-07-06T02:39:34;6.60;;;3.20;;
8665;SDS011;4370;48.916;8.380;2022-07-06T02:42:00;4.07;;;3.40;;
8665;SDS011;4370;48.916;8.380;2022-07-06T02:44:26;4.03;;;3.13;;
8665;SDS011;4370;48.916;8.380;2022-07-06T02:46:51;3.40;;;3.10;;
8665;SDS011;4370;48.916;8.380;2022-07-06T02:49:17;4.63;;;3.50;;
8665;SDS011;4370;48.916;8.380;2022-07-06T02:51:43;3.50;;;3.20;;
8665;SDS011;4370;48.916;8.380;2022-07-06T02:54:09;4.63;;;3.33;;
8665;SDS011;4370;48.916;8.380;2022-07-06T02:56:35;4.73;;;3.70;;
8665;SDS011;4370;48.916;8.380;2022-07-06T02:59:01;4.23;;;3.57;;
8665;SDS011;4370;48.916;8.380;2022-07-06T03:01:27;3.57;;;3.23;;
8665;SDS011;4370;48.916;8.380;2022-07-06T03:03:53;3.57;;;3.27;;
8665;SDS011;4370;48.916;8.380;2022-07-06T03:06:19;3.33;;;3.03;;
8665;SDS011;4370;48.916;8.380;2022-07-06T03:08:45;4.40;;;3.50;;
8665;SDS011;4370;48.916;8.380;2022-07-06T03:11:10;3.50;;;3.20;;
8665;SDS011;4370;48.916;8.380;2022-07-06T03:13:36;3.97;;;3.57;;
8665;SDS011;4370;48.916;8.380;2022-07-06T03:16:02;5.33;;;3.73;;
8665;SDS011;4370;48.916;8.380;2022-07-06T03:18:27;4.30;;;3.67;;
8665;SDS011;4370;48.916;8.380;2022-07-06T03:20:53;3.90;;;3.30;;
8665;SDS011;4370;48.916;8.380;2022-07-06T03:23:19;3.70;;;3.40;;
8665;SDS011;4370;48.916;8.380;2022-07-06T03:25:45;3.50;;;3.20;;
8665;SDS011;4370;48.916;8.380;2022-07-06T03:28:11;4.03;;;3.47;;
8665;SDS011;4370;48.916;8.380;2022-07-06T03:30:37;3.60;;;3.30;;
8665;SDS011;4370;48.916;8.380;2022-07-06T03:33:03;3.60;;;3.30;;
8665;SDS011;4370;48.916;8.380;2022-07-06T03:35:29;3.67;;;3.30;;
8665;SDS011;4370;48.916;8.380;2022-07-06T03:37:55;3.77;;;3.37;;
8665;SDS011;4370;48.916;8.380;2022-07-06T03:40:21;3.50;;;3.20;;
8665;SDS011;4370;48.916;8.380;2022-07-06T03:42:47;3.47;;;3.13;;
8665;SDS011;4370;48.916;8.380;2022-07-06T03:45:13;3.70;;;3.40;;
8665;SDS011;4370;48.916;8.380;2022-07-06T03:47:39;4.90;;;3.40;;
8665;SDS011;4370;48.916;8.380;2022-07-06T03:50:05;5.70;;;3.40;;
8665;SDS011;4370;48.916;8.380;2022-07-06T03:52:31;3.53;;;3.23;;
8665;SDS011;4370;48.916;8.380;2022-07-06T03:54:57;4.17;;;3.60;;
8665;SDS011;4370;48.916;8.380;2022-07-06T03:57:23;3.63;;;3.30;;
8665;SDS011;4370;48.916;8.380;2022-07-06T03:59:50;3.37;;;3.10;;
8665;SDS011;4370;48.916;8.380;2022-07-06T04:02:16;3.80;;;3.50;;
8665;SDS011;4370;48.916;8.380;2022-07-06T04:04:42;3.50;;;3.20;;
8665;SDS011;4370;48.916;8.380;2022-07-06T04:07:08;7.13;;;4.07;;
8665;SDS011;4370;48.916;8.380;2022-07-06T04:09:34;4.03;;;3.57;;
8665;SDS011;4370;48.916;8.380;2022-07-06T04:12:00;5.73;;;3.50;;
8665;SDS011;4370;48.916;8.380;2022-07-06T04:14:26;3.60;;;3.30;;
8665;SDS011;4370;48.916;8.380;2022-07-06T04:16:52;6.17;;;3.90;;
8665;SDS011;4370;48.916;8.380;2022-07-06T04:19:18;4.00;;;3.37;;
8665;SDS011;4370;48.916;8.380;2022-07-06T04:21:44;3.50;;;3.20;;
8665;SDS011;4370;48.916;8.380;2022-07-06T04:24:10;4.10;;;3.70;;
8665;SDS011;4370;48.916;8.380;2022-07-06T04:26:36;3.87;;;3.50;;
8665;SDS011;4370;48.916;8.380;2022-07-06T04:29:01;3.83;;;3.33;;
8665;SDS011;4370;48.916;8.380;2022-07-06T04:31:28;3.43;;;3.13;;
8665;SDS011;4370;48.916;8.380;2022-07-06T04:33:54;3.40;;;3.10;;
8665;SDS011;4370;48.916;8.380;2022-07-06T04:36:20;4.40;;;2.90;;
8665;SDS011;4370;48.916;8.380;2022-07-06T04:38:46;5.63;;;3.87;;
8665;SDS011;4370;48.916;8.380;2022-07-06T04:41:12;4.63;;;3.50;;
8665;SDS011;4370;48.916;8.380;2022-07-06T04:43:38;3.27;;;2.93;;
8665;SDS011;4370;48.916;8.380;2022-07-06T04:46:04;2.80;;;2.60;;
8665;SDS011;4370;48.916;8.380;2022-07-06T04:48:30;3.13;;;2.93;;
8665;SDS011;4370;48.916;8.380;2022-07-06T04:51:01;3.70;;;2.93;;
8665;SDS011;4370;48.916;8.380;2022-07-06T04:53:27;3.10;;;2.90;;
8665;SDS011;4370;48.916;8.380;2022-07-06T04:55:53;5.57;;;2.50;;
8665;SDS011;4370;48.916;8.380;2022-07-06T04:58:18;3.83;;;2.70;;
8665;SDS011;4370;48.916;8.380;2022-07-06T05:00:44;3.97;;;2.60;;
8665;SDS011;4370;48.916;8.380;2022-07-06T05:03:10;3.53;;;2.70;;
8665;SDS011;4370;48.916;8.380;2022-07-06T05:05:36;3.53;;;2.60;;
8665;SDS011;4370;48.916;8.380;2022-07-06T05:08:01;4.23;;;2.40;;
8665;SDS011;4370;48.916;8.380;2022-07-06T05:10:27;3.70;;;2.10;;
8665;SDS011;4370;48.916;8.380;2022-07-06T05:12:53;3.10;;;2.20;;
8665;SDS011;4370;48.916;8.380;2022-07-06T05:15:20;2.73;;;2.30;;
8665;SDS011;4370;48.916;8.380;2022-07-06T05:17:46;4.43;;;2.10;;
8665;SDS011;4370;48.916;8.380;2022-07-06T05:20:11;3.03;;;1.90;;
8665;SDS011;4370;48.916;8.380;2022-07-06T05:22:37;3.60;;;1.80;;
8665;SDS011;4370;48.916;8.380;2022-07-06T05:25:03;2.00;;;1.80;;
8665;SDS011;4370;48.916;8.380;2022-07-06T05:27:29;3.13;;;1.87;;
8665;SDS011;4370;48.916;8.380;2022-07-06T05:29:55;4.13;;;1.90;;
8665;SDS011;4370;48.916;8.380;2022-07-06T05:32:21;3.27;;;1.90;;
8665;SDS011;4370;48.916;8.380;2022-07-06T05:34:47;2.53;;;1.80;;
8665;SDS011;4370;48.916;8.380;2022-07-06T05:37:12;3.90;;;2.43;;
8665;SDS011;4370;48.916;8.380;2022-07-06T05:39:38;1.87;;;1.70;;
8665;SDS011;4370;48.916;8.380;2022-07-06T05:42:08;3.53;;;1.93;;
8665;SDS011;4370;48.916;8.380;2022-07-06T05:44:34;2.50;;;1.90;;
8665;SDS011;4370;48.916;8.380;2022-07-06T05:47:00;3.87;;;1.53;;
8665;SDS011;4370;48.916;8.380;2022-07-06T05:49:45;2.80;;;1.87;;
8665;SDS011;4370;48.916;8.380;2022-07-06T05:52:29;3.10;;;1.50;;
8665;SDS011;4370;48.916;8.380;2022-07-06T05:54:55;3.53;;;1.73;;
8665;SDS011;4370;48.916;8.380;2022-07-06T05:57:21;2.70;;;1.60;;
8665;SDS011;4370;48.916;8.380;2022-07-06T05:59:47;2.90;;;1.50;;
8665;SDS011;4370;48.916;8.380;2022-07-06T06:02:12;4.03;;;1.80;;
8665;SDS011;4370;48.916;8.380;2022-07-06T06:04:38;5.47;;;1.80;;
8665;SDS011;4370;48.916;8.380;2022-07-06T06:07:04;4.83;;;1.80;;
8665;SDS011;4370;48.916;8.380;2022-07-06T06:09:30;3.60;;;1.60;;
8665;SDS011;4370;48.916;8.380;2022-07-06T06:11:56;5.60;;;1.90;;
8665;SDS011;4370;48.916;8.380;2022-07-06T06:14:22;4.40;;;1.60;;
8665;SDS011;4370;48.916;8.380;2022-07-06T06:16:48;4.32;;;1.75;;
8665;SDS011;4370;48.916;8.380;2022-07-06T06:19:14;4.72;;;1.67;;
8665;SDS011;4370;48.916;8.380;2022-07-06T06:21:40;5.47;;;1.90;;
8665;SDS011;4370;48.916;8.380;2022-07-06T06:24:05;1.75;;;1.60;;
8665;SDS011;4370;48.916;8.380;2022-07-06T06:26:32;4.18;;;1.70;;
8665;SDS011;4370;48.916;8.380;2022-07-06T06:28:57;3.42;;;1.50;;
8665;SDS011;4370;48.916;8.380;2022-07-06T06:31:23;4.43;;;1.95;;
8665;SDS011;4370;48.916;8.380;2022-07-06T06:33:49;2.58;;;1.70;;
8665;SDS011;4370;48.916;8.380;2022-07-06T06:36:15;4.28;;;1.83;;
8665;SDS011;4370;48.916;8.380;2022-07-06T06:38:41;4.32;;;1.95;;
8665;SDS011;4370;48.916;8.380;2022-07-06T06:41:07;2.00;;;1.40;;
8665;SDS011;4370;48.916;8.380;2022-07-06T06:43:32;2.30;;;1.60;;
8665;SDS011;4370;48.916;8.380;2022-07-06T06:45:58;3.05;;;1.70;;
8665;SDS011;4370;48.916;8.380;2022-07-06T06:48:24;5.55;;;1.85;;
8665;SDS011;4370;48.916;8.380;2022-07-06T06:50:50;2.10;;;1.60;;
8665;SDS011;4370;48.916;8.380;2022-07-06T06:53:16;3.63;;;1.75;;
8665;SDS011;4370;48.916;8.380;2022-07-06T06:55:41;2.60;;;1.73;;
8665;SDS011;4370;48.916;8.380;2022-07-06T06:58:07;6.95;;;1.77;;
8665;SDS011;4370;48.916;8.380;2022-07-06T07:00:33;4.30;;;1.50;;
8665;SDS011;4370;48.916;8.380;2022-07-06T07:02:59;4.20;;;1.92;;
8665;SDS011;4370;48.916;8.380;2022-07-06T07:05:25;5.60;;;1.77;;
8665;SDS011;4370;48.916;8.380;2022-07-06T07:07:51;4.25;;;1.50;;
8665;SDS011;4370;48.916;8.380;2022-07-06T07:10:17;3.38;;;1.73;;
8665;SDS011;4370;48.916;8.380;2022-07-06T07:12:43;3.63;;;1.50;;
8665;SDS011;4370;48.916;8.380;2022-07-06T07:15:12;3.95;;;1.58;;
8665;SDS011;4370;48.916;8.380;2022-07-06T07:17:39;4.72;;;1.60;;
8665;SDS011;4370;48.916;8.380;2022-07-06T07:20:05;4.10;;;1.80;;
8665;SDS011;4370;48.916;8.380;2022-07-06T07:22:32;3.17;;;1.60;;
8665;SDS011;4370;48.916;8.380;2022-07-06T07:24:58;4.80;;;1.73;;
8665;SDS011;4370;48.916;8.380;2022-07-06T07:27:24;3.03;;;1.42;;
8665;SDS011;4370;48.916;8.380;2022-07-06T07:29:50;4.43;;;1.50;;
8665;SDS011;4370;48.916;8.380;2022-07-06T07:32:16;2.70;;;1.70;;
8665;SDS011;4370;48.916;8.380;2022-07-06T07:34:42;2.15;;;1.60;;
8665;SDS011;4370;48.916;8.380;2022-07-06T07:37:08;4.85;;;1.50;;
8665;SDS011;4370;48.916;8.380;2022-07-06T07:39:33;5.85;;;1.60;;
8665;SDS011;4370;48.916;8.380;2022-07-06T07:41:59;5.32;;;1.70;;
8665;SDS011;4370;48.916;8.380;2022-07-06T07:44:25;3.80;;;1.55;;
8665;SDS011;4370;48.916;8.380;2022-07-06T07:46:52;2.95;;;1.40;;
8665;SDS011;4370;48.916;8.380;2022-07-06T07:49:18;5.35;;;1.83;;
8665;SDS011;4370;48.916;8.380;2022-07-06T07:51:45;4.45;;;1.55;;
8665;SDS011;4370;48.916;8.380;2022-07-06T07:54:11;5.45;;;1.80;;
8665;SDS011;4370;48.916;8.380;2022-07-06T07:56:37;5.22;;;1.77;;
8665;SDS011;4370;48.916;8.380;2022-07-06T07:59:06;3.58;;;1.70;;
8665;SDS011;4370;48.916;8.380;2022-07-06T08:01:32;3.85;;;1.70;;
8665;SDS011;4370;48.916;8.380;2022-07-06T08:03:58;3.85;;;1.70;;
8665;SDS011;4370;48.916;8.380;2022-07-06T08:06:24;5.55;;;1.60;;
8665;SDS011;4370;48.916;8.380;2022-07-06T08:08:49;4.38;;;1.75;;
8665;SDS011;4370;48.916;8.380;2022-07-06T08:11:15;3.42;;;1.70;;
8665;SDS011;4370;48.916;8.380;2022-07-06T08:13:41;2.60;;;1.60;;
8665;SDS011;4370;48.916;8.380;2022-07-06T08:16:07;3.45;;;1.63;;
8665;SDS011;4370;48.916;8.380;2022-07-06T08:18:34;4.25;;;1.73;;
8665;SDS011;4370;48.916;8.380;2022-07-06T08:21:00;4.40;;;1.80;;
8665;SDS011;4370;48.916;8.380;2022-07-06T08:23:26;4.20;;;1.70;;
8665;SDS011;4370;48.916;8.380;2022-07-06T08:25:52;4.07;;;1.55;;
8665;SDS011;4370;48.916;8.380;2022-07-06T08:28:18;5.53;;;1.60;;
8665;SDS011;4370;48.916;8.380;2022-07-06T08:30:44;6.90;;;2.08;;
8665;SDS011;4370;48.916;8.380;2022-07-06T08:33:09;3.35;;;1.85;;
8665;SDS011;4370;48.916;8.380;2022-07-06T08:35:35;3.03;;;1.58;;
8665;SDS011;4370;48.916;8.380;2022-07-06T08:38:00;6.38;;;1.95;;
8665;SDS011;4370;48.916;8.380;2022-07-06T08:40:28;5.57;;;2.25;;
8665;SDS011;4370;48.916;8.380;2022-07-06T08:42:58;6.30;;;1.70;;
8665;SDS011;4370;48.916;8.380;2022-07-06T08:45:25;6.72;;;1.83;;
8665;SDS011;4370;48.916;8.380;2022-07-06T08:47:51;4.05;;;1.90;;
8665;SDS011;4370;48.916;8.380;2022-07-06T08:50:19;4.22;;;1.95;;
8665;SDS011;4370;48.916;8.380;2022-07-06T08:52:48;5.18;;;1.80;;
8665;SDS011;4370;48.916;8.380;2022-07-06T08:55:14;4.97;;;1.67;;
8665;SDS011;4370;48.916;8.380;2022-07-06T08:57:41;4.10;;;1.85;;
8665;SDS011;4370;48.916;8.380;2022-07-06T09:00:10;3.78;;;2.08;;
8665;SDS011;4370;48.916;8.380;2022-07-06T09:02:36;4.78;;;1.90;;
8665;SDS011;4370;48.916;8.380;2022-07-06T09:05:03;5.82;;;2.00;;
8665;SDS011;4370;48.916;8.380;2022-07-06T09:07:29;5.15;;;2.47;;
8665;SDS011;4370;48.916;8.380;2022-07-06T09:09:55;4.57;;;2.00;;
8665;SDS011;4370;48.916;8.380;2022-07-06T09:12:23;2.67;;;1.73;;
8665;SDS011;4370;48.916;8.380;2022-07-06T09:14:54;3.63;;;1.77;;
8665;SDS011;4370;48.916;8.380;2022-07-06T09:17:20;5.93;;;2.33;;
8665;SDS011;4370;48.916;8.380;2022-07-06T09:19:45;4.97;;;2.00;;
8665;SDS011;4370;48.916;8.380;2022-07-06T09:22:24;3.10;;;1.80;;
8665;SDS011;4370;48.916;8.380;2022-07-06T09:25:05;5.17;;;1.93;;
8665;SDS011;4370;48.916;8.380;2022-07-06T09:27:41;4.93;;;1.70;;
8665;SDS011;4370;48.916;8.380;2022-07-06T09:30:09;5.13;;;2.33;;
8665;SDS011;4370;48.916;8.380;2022-07-06T09:32:38;4.80;;;1.97;;
8665;SDS011;4370;48.916;8.380;2022-07-06T09:35:05;6.33;;;2.20;;
8665;SDS011;4370;48.916;8.380;2022-07-06T09:37:31;4.03;;;2.03;;
8665;SDS011;4370;48.916;8.380;2022-07-06T09:39:57;2.80;;;1.70;;
8665;SDS011;4370;48.916;8.380;2022-07-06T09:42:24;4.33;;;2.40;;
8665;SDS011;4370;48.916;8.380;2022-07-06T09:44:51;3.73;;;2.20;;
8665;SDS011;4370;48.916;8.380;2022-07-06T09:47:18;7.43;;;2.10;;
8665;SDS011;4370;48.916;8.380;2022-07-06T09:49:45;3.23;;;1.63;;
8665;SDS011;4370;48.916;8.380;2022-07-06T09:52:13;5.77;;;2.27;;
8665;SDS011;4370;48.916;8.380;2022-07-06T09:54:39;5.33;;;2.27;;
8665;SDS011;4370;48.916;8.380;2022-07-06T09:57:05;4.83;;;2.00;;
8665;SDS011;4370;48.916;8.380;2022-07-06T09:59:32;3.77;;;2.03;;
8665;SDS011;4370;48.916;8.380;2022-07-06T10:01:59;4.53;;;2.03;;
8665;SDS011;4370;48.916;8.380;2022-07-06T10:04:32;8.13;;;2.30;;
8665;SDS011;4370;48.916;8.380;2022-07-06T10:06:59;5.10;;;2.10;;
8665;SDS011;4370;48.916;8.380;2022-07-06T10:09:25;4.90;;;1.80;;
8665;SDS011;4370;48.916;8.380;2022-07-06T10:14:20;5.43;;;1.80;;
8665;SDS011;4370;48.916;8.380;2022-07-06T10:16:47;4.17;;;1.80;;
8665;SDS011;4370;48.916;8.380;2022-07-06T10:19:14;12.43;;;2.07;;
8665;SDS011;4370;48.916;8.380;2022-07-06T10:21:40;5.53;;;1.90;;
8665;SDS011;4370;48.916;8.380;2022-07-06T10:24:07;5.90;;;2.00;;
8665;SDS011;4370;48.916;8.380;2022-07-06T10:26:35;3.67;;;1.83;;
8665;SDS011;4370;48.916;8.380;2022-07-06T10:29:01;3.60;;;1.67;;
8665;SDS011;4370;48.916;8.380;2022-07-06T10:31:30;6.87;;;2.07;;
8665;SDS011;4370;48.916;8.380;2022-07-06T10:33:57;3.00;;;1.60;;
8665;SDS011;4370;48.916;8.380;2022-07-06T10:36:24;5.63;;;2.40;;
8665;SDS011;4370;48.916;8.380;2022-07-06T10:38:51;3.87;;;1.90;;
8665;SDS011;4370;48.916;8.380;2022-07-06T10:41:18;2.30;;;1.73;;
8665;SDS011;4370;48.916;8.380;2022-07-06T10:43:55;6.33;;;2.13;;
8665;SDS011;4370;48.916;8.380;2022-07-06T10:46:22;3.57;;;1.77;;
8665;SDS011;4370;48.916;8.380;2022-07-06T10:48:48;3.67;;;1.70;;
8665;SDS011;4370;48.916;8.380;2022-07-06T10:51:24;4.63;;;1.90;;
8665;SDS011;4370;48.916;8.380;2022-07-06T10:53:57;4.77;;;2.10;;
8665;SDS011;4370;48.916;8.380;2022-07-06T10:56:32;4.53;;;2.00;;
8665;SDS011;4370;48.916;8.380;2022-07-06T10:59:02;4.20;;;2.17;;
8665;SDS011;4370;48.916;8.380;2022-07-06T11:01:34;4.90;;;2.03;;
8665;SDS011;4370;48.916;8.380;2022-07-06T11:06:27;5.20;;;1.88;;
8665;SDS011;4370;48.916;8.380;2022-07-06T11:09:00;3.20;;;1.75;;
8665;SDS011;4370;48.916;8.380;2022-07-06T11:16:26;10.88;;;2.22;;
8665;SDS011;4370;48.916;8.380;2022-07-06T11:21:39;6.68;;;1.90;;
8665;SDS011;4370;48.916;8.380;2022-07-06T11:24:11;7.80;;;1.75;;
8665;SDS011;4370;48.916;8.380;2022-07-06T11:26:39;3.83;;;1.80;;
8665;SDS011;4370;48.916;8.380;2022-07-06T11:29:06;4.57;;;1.70;;
8665;SDS011;4370;48.916;8.380;2022-07-06T11:31:36;2.75;;;1.50;;
8665;SDS011;4370;48.916;8.380;2022-07-06T11:34:04;6.05;;;1.92;;
8665;SDS011;4370;48.916;8.380;2022-07-06T11:36:31;4.18;;;2.08;;
8665;SDS011;4370;48.916;8.380;2022-07-06T11:38:57;5.07;;;1.70;;
8665;SDS011;4370;48.916;8.380;2022-07-06T11:41:23;3.40;;;1.92;;
8665;SDS011;4370;48.916;8.380;2022-07-06T11:43:49;3.22;;;1.70;;
8665;SDS011;4370;48.916;8.380;2022-07-06T11:48:52;2.92;;;1.55;;
8665;SDS011;4370;48.916;8.380;2022-07-06T11:51:20;4.05;;;1.70;;
8665;SDS011;4370;48.916;8.380;2022-07-06T11:53:46;3.80;;;1.90;;
8665;SDS011;4370;48.916;8.380;2022-07-06T11:56:17;5.03;;;1.63;;
8665;SDS011;4370;48.916;8.380;2022-07-06T11:58:53;3.70;;;1.73;;
8665;SDS011;4370;48.916;8.380;2022-07-06T12:01:21;3.80;;;1.98;;
8665;SDS011;4370;48.916;8.380;2022-07-06T12:03:51;5.18;;;2.10;;
8665;SDS011;4370;48.916;8.380;2022-07-06T12:06:19;3.95;;;1.80;;
8665;SDS011;4370;48.916;8.380;2022-07-06T12:08:57;1.97;;;1.63;;
8665;SDS011;4370;48.916;8.380;2022-07-06T12:11:27;2.03;;;1.63;;
8665;SDS011;4370;48.916;8.380;2022-07-06T12:13:56;2.77;;;1.73;;
8665;SDS011;4370;48.916;8.380;2022-07-06T12:16:35;1.93;;;1.70;;
8665;SDS011;4370;48.916;8.380;2022-07-06T12:19:02;3.93;;;1.80;;
8665;SDS011;4370;48.916;8.380;2022-07-06T12:21:28;2.43;;;1.70;;
8665;SDS011;4370;48.916;8.380;2022-07-06T12:23:55;3.00;;;1.70;;
8665;SDS011;4370;48.916;8.380;2022-07-06T12:26:22;4.67;;;2.00;;
8665;SDS011;4370;48.916;8.380;2022-07-06T12:29:00;2.22;;;1.77;;
8665;SDS011;4370;48.916;8.380;2022-07-06T12:31:36;3.27;;;1.73;;
8665;SDS011;4370;48.916;8.380;2022-07-06T12:34:03;2.17;;;1.77;;
8665;SDS011;4370;48.916;8.380;2022-07-06T12:36:30;4.17;;;1.90;;
8665;SDS011;4370;48.916;8.380;2022-07-06T12:38:56;2.83;;;1.80;;
8665;SDS011;4370;48.916;8.380;2022-07-06T12:41:26;2.67;;;1.80;;
8665;SDS011;4370;48.916;8.380;2022-07-06T12:43:59;4.90;;;1.90;;
8665;SDS011;4370;48.916;8.380;2022-07-06T12:46:30;3.50;;;1.73;;
8665;SDS011;4370;48.916;8.380;2022-07-06T12:48:57;3.87;;;2.00;;
8665;SDS011;4370;48.916;8.380;2022-07-06T12:51:23;1.80;;;1.47;;
8665;SDS011;4370;48.916;8.380;2022-07-06T12:53:49;6.15;;;1.70;;
8665;SDS011;4370;48.916;8.380;2022-07-06T12:56:15;4.22;;;1.80;;
8665;SDS011;4370;48.916;8.380;2022-07-06T12:59:01;4.60;;;1.77;;
8665;SDS011;4370;48.916;8.380;2022-07-06T13:01:26;3.13;;;1.50;;
8665;SDS011;4370;48.916;8.380;2022-07-06T13:03:55;6.93;;;1.70;;
8665;SDS011;4370;48.916;8.380;2022-07-06T13:06:32;2.55;;;1.65;;
8665;SDS011;4370;48.916;8.380;2022-07-06T13:08:58;5.05;;;1.80;;
8665;SDS011;4370;48.916;8.380;2022-07-06T13:11:24;2.90;;;1.70;;
8665;SDS011;4370;48.916;8.380;2022-07-06T13:13:50;2.17;;;1.52;;
8665;SDS011;4370;48.916;8.380;2022-07-06T13:16:16;2.40;;;1.50;;
8665;SDS011;4370;48.916;8.380;2022-07-06T13:18:42;2.57;;;1.50;;
8665;SDS011;4370;48.916;8.380;2022-07-06T13:21:08;1.85;;;1.42;;
8665;SDS011;4370;48.916;8.380;2022-07-06T13:23:34;3.23;;;1.53;;
8665;SDS011;4370;48.916;8.380;2022-07-06T13:25:59;3.83;;;1.90;;
8665;SDS011;4370;48.916;8.380;2022-07-06T13:28:25;3.07;;;1.70;;
8665;SDS011;4370;48.916;8.380;2022-07-06T13:30:51;5.70;;;1.70;;
8665;SDS011;4370;48.916;8.380;2022-07-06T13:33:17;4.27;;;1.50;;
8665;SDS011;4370;48.916;8.380;2022-07-06T13:35:42;1.67;;;1.53;;
8665;SDS011;4370;48.916;8.380;2022-07-06T13:38:08;2.67;;;1.60;;
8665;SDS011;4370;48.916;8.380;2022-07-06T13:40:34;2.57;;;1.70;;
8665;SDS011;4370;48.916;8.380;2022-07-06T13:43:00;2.83;;;1.60;;
8665;SDS011;4370;48.916;8.380;2022-07-06T13:45:26;2.70;;;1.60;;
8665;SDS011;4370;48.916;8.380;2022-07-06T13:47:52;5.13;;;1.67;;
8665;SDS011;4370;48.916;8.380;2022-07-06T13:50:18;1.87;;;1.30;;
8665;SDS011;4370;48.916;8.380;2022-07-06T13:52:44;3.37;;;1.33;;
8665;SDS011;4370;48.916;8.380;2022-07-06T13:55:09;1.40;;;1.30;;
8665;SDS011;4370;48.916;8.380;2022-07-06T13:57:35;1.77;;;1.23;;
8665;SDS011;4370;48.916;8.380;2022-07-06T14:00:03;2.47;;;1.53;;
8665;SDS011;4370;48.916;8.380;2022-07-06T14:02:29;1.38;;;1.27;;
8665;SDS011;4370;48.916;8.380;2022-07-06T14:04:54;1.87;;;1.30;;
8665;SDS011;4370;48.916;8.380;2022-07-06T14:07:20;2.47;;;1.40;;
8665;SDS011;4370;48.916;8.380;2022-07-06T14:09:46;2.17;;;1.30;;
8665;SDS011;4370;48.916;8.380;2022-07-06T14:12:16;1.80;;;1.20;;
8665;SDS011;4370;48.916;8.380;2022-07-06T14:14:42;1.53;;;1.10;;
8665;SDS011;4370;48.916;8.380;2022-07-06T14:17:08;3.40;;;1.50;;
8665;SDS011;4370;48.916;8.380;2022-07-06T14:19:34;1.60;;;1.20;;
8665;SDS011;4370;48.916;8.380;2022-07-06T14:22:00;5.70;;;1.30;;
8665;SDS011;4370;48.916;8.380;2022-07-06T14:24:26;1.90;;;1.37;;
8665;SDS011;4370;48.916;8.380;2022-07-06T14:26:52;2.93;;;1.30;;
8665;SDS011;4370;48.916;8.380;2022-07-06T14:29:17;1.53;;;1.30;;
8665;SDS011;4370;48.916;8.380;2022-07-06T14:31:43;3.23;;;1.60;;
8665;SDS011;4370;48.916;8.380;2022-07-06T14:34:09;2.70;;;1.27;;
8665;SDS011;4370;48.916;8.380;2022-07-06T14:36:35;1.47;;;1.27;;
8665;SDS011;4370;48.916;8.380;2022-07-06T14:39:02;2.75;;;1.40;;
8665;SDS011;4370;48.916;8.380;2022-07-06T14:41:29;3.97;;;1.30;;
8665;SDS011;4370;48.916;8.380;2022-07-06T14:43:55;1.60;;;1.20;;
8665;SDS011;4370;48.916;8.380;2022-07-06T14:46:21;2.25;;;1.48;;
8665;SDS011;4370;48.916;8.380;2022-07-06T14:48:47;4.00;;;1.40;;
8665;SDS011;4370;48.916;8.380;2022-07-06T14:51:12;2.80;;;1.20;;
8665;SDS011;4370;48.916;8.380;2022-07-06T14:53:38;3.13;;;1.60;;
8665;SDS011;4370;48.916;8.380;2022-07-06T14:56:04;2.33;;;1.40;;
8665;SDS011;4370;48.916;8.380;2022-07-06T14:58:30;6.90;;;1.50;;
8665;SDS011;4370;48.916;8.380;2022-07-06T15:00:55;3.43;;;1.70;;
8665;SDS011;4370;48.916;8.380;2022-07-06T15:03:21;2.67;;;1.25;;
8665;SDS011;4370;48.916;8.380;2022-07-06T15:05:48;2.55;;;1.15;;
8665;SDS011;4370;48.916;8.380;2022-07-06T15:08:14;4.28;;;1.85;;
8665;SDS011;4370;48.916;8.380;2022-07-06T15:10:40;3.22;;;1.30;;
8665;SDS011;4370;48.916;8.380;2022-07-06T15:13:07;3.40;;;1.38;;
8665;SDS011;4370;48.916;8.380;2022-07-06T15:15:32;2.60;;;1.27;;
8665;SDS011;4370;48.916;8.380;2022-07-06T15:17:58;1.40;;;1.17;;
8665;SDS011;4370;48.916;8.380;2022-07-06T15:20:24;1.75;;;1.25;;
8665;SDS011;4370;48.916;8.380;2022-07-06T15:22:50;1.42;;;1.30;;
8665;SDS011;4370;48.916;8.380;2022-07-06T15:25:16;3.08;;;1.20;;
8665;SDS011;4370;48.916;8.380;2022-07-06T15:27:44;1.20;;;1.10;;